Time;durP1;ratioP1;P1;durP2;ratioP2;P2;SDS_P1;SDS_P2;PMS_P1;PMS_P2;Temp;Humidity;BMP_temperature;BMP_pressure;BME280_temperature;BME280_humidity;BME280_pressure;Samples;Min_cycle;Max_cycle;Signal;HPM_P1;HPM_P2
2021/07/28 00:01:09;;;;;;;2.88;1.88;;;18.40;99.90;;;;;;5065518;28;20025;-68
2021/07/28 00:03:35;;;;;;;2.78;1.70;;;18.40;99.90;;;;;;5065630;28;20478;-69
2021/07/28 00:06:00;;;;;;;2.97;1.67;;;18.40;99.90;;;;;;5065670;28;20081;-68
2021/07/28 00:08:26;;;;;;;7.60;1.98;;;18.40;99.90;;;;;;5065538;28;20032;-68
2021/07/28 00:10:52;;;;;;;3.92;1.75;;;18.30;99.90;;;;;;5065597;28;20040;-69
2021/07/28 00:13:17;;;;;;;3.85;2.10;;;18.30;99.90;;;;;;5065391;28;20029;-69
2021/07/28 00:15:43;;;;;;;3.45;1.60;;;18.30;99.90;;;;;;5064994;28;20092;-69
2021/07/28 00:18:18;;;;;;;5.15;2.20;;;18.30;99.90;;;;;;5065522;28;20080;-68
2021/07/28 00:23:14;;;;;;;4.00;1.95;;;18.20;99.90;;;;;;5065220;28;20037;-70
2021/07/28 00:25:40;;;;;;;3.53;2.13;;;18.20;99.90;;;;;;5065367;28;20025;-68
2021/07/28 00:28:06;;;;;;;3.50;2.00;;;18.10;99.90;;;;;;5065296;28;20054;-69
2021/07/28 00:30:32;;;;;;;2.17;1.63;;;18.10;99.90;;;;;;5063499;28;20065;-68
2021/07/28 00:32:58;;;;;;;2.92;1.58;;;18.10;99.90;;;;;;5065079;28;20025;-69
2021/07/28 00:35:23;;;;;;;3.33;1.80;;;18.10;99.90;;;;;;5065054;28;20033;-68
2021/07/28 00:37:50;;;;;;;7.30;1.90;;;18.10;99.90;;;;;;5064951;28;20056;-69
2021/07/28 00:40:16;;;;;;;4.63;1.92;;;18.10;99.90;;;;;;5064951;28;20046;-68
2021/07/28 00:42:41;;;;;;;2.97;1.77;;;18.10;99.90;;;;;;5064897;28;20033;-69
2021/07/28 00:45:07;;;;;;;5.80;2.30;;;18.10;99.90;;;;;;5064932;28;20035;-70
2021/07/28 00:47:33;;;;;;;3.58;2.00;;;18.10;99.90;;;;;;5065082;28;20032;-68
2021/07/28 00:50:00;;;;;;;3.40;2.13;;;18.00;99.90;;;;;;5064878;28;20064;-67
2021/07/28 00:52:26;;;;;;;3.33;1.95;;;18.10;99.90;;;;;;5064756;28;20127;-68
2021/07/28 00:54:53;;;;;;;3.30;2.05;;;18.00;99.90;;;;;;5064894;28;20021;-68
2021/07/28 00:57:19;;;;;;;4.90;2.08;;;18.00;99.90;;;;;;5064695;28;20032;-68
2021/07/28 00:59:45;;;;;;;3.83;1.90;;;18.10;99.90;;;;;;5064672;28;20024;-69
2021/07/28 01:02:11;;;;;;;3.63;2.25;;;18.00;99.90;;;;;;5064542;28;20044;-68
2021/07/28 01:04:36;;;;;;;7.30;2.33;;;18.00;99.90;;;;;;5064756;28;20059;-68
2021/07/28 01:07:02;;;;;;;4.28;2.38;;;18.00;99.90;;;;;;5064685;28;20075;-69
2021/07/28 01:09:31;;;;;;;5.65;2.38;;;18.00;99.90;;;;;;5064729;28;20395;-69
2021/07/28 01:12:02;;;;;;;3.95;2.45;;;18.00;99.90;;;;;;5064453;28;20083;-68
2021/07/28 01:14:28;;;;;;;5.63;2.65;;;18.00;99.90;;;;;;5064445;28;20429;-69
2021/07/28 01:16:55;;;;;;;4.38;2.30;;;18.00;99.90;;;;;;5064502;28;20025;-68
2021/07/28 01:19:24;;;;;;;5.35;2.45;;;18.00;99.90;;;;;;5064614;28;20032;-68
2021/07/28 01:21:51;;;;;;;4.45;2.45;;;18.00;99.90;;;;;;5064372;28;20037;-68
2021/07/28 01:24:18;;;;;;;4.72;2.22;;;18.00;99.90;;;;;;5064489;28;20032;-70
2021/07/28 01:26:44;;;;;;;6.20;2.72;;;17.90;99.90;;;;;;5064505;28;20029;-68
2021/07/28 01:29:13;;;;;;;5.55;2.50;;;17.80;99.90;;;;;;5064576;28;20063;-70
2021/07/28 01:31:41;;;;;;;4.45;2.28;;;17.90;99.90;;;;;;5064523;28;20055;-70
2021/07/28 01:34:08;;;;;;;2.78;1.95;;;17.90;99.90;;;;;;5064477;28;20082;-70
2021/07/28 01:36:35;;;;;;;4.60;2.25;;;17.90;99.90;;;;;;5064577;28;20096;-67
2021/07/28 01:39:03;;;;;;;6.95;2.72;;;17.80;99.90;;;;;;5064391;28;20029;-68
2021/07/28 01:41:29;;;;;;;5.03;2.42;;;17.80;99.90;;;;;;5064682;28;20135;-68
2021/07/28 01:43:54;;;;;;;4.32;2.70;;;17.80;99.90;;;;;;5068296;28;20413;-69
2021/07/28 01:46:20;;;;;;;9.15;3.08;;;17.70;99.90;;;;;;5068092;28;20029;-68
2021/07/28 01:48:46;;;;;;;12.10;2.45;;;17.70;99.90;;;;;;5068236;28;20041;-71
2021/07/28 01:51:11;;;;;;;5.88;3.17;;;17.70;99.90;;;;;;5068340;28;20075;-70
2021/07/28 01:53:37;;;;;;;5.53;2.78;;;17.60;99.90;;;;;;5068084;28;20025;-71
2021/07/28 01:56:03;;;;;;;4.95;2.80;;;17.60;99.90;;;;;;5068292;28;20033;-69
2021/07/28 01:58:29;;;;;;;8.10;3.50;;;17.60;99.90;;;;;;5068137;28;20032;-71
2021/07/28 02:00:55;;;;;;;7.55;3.75;;;17.60;99.90;;;;;;5067870;28;20509;-69
2021/07/28 02:03:21;;;;;;;7.15;3.38;;;17.60;99.90;;;;;;5067875;28;20036;-69
2021/07/28 02:05:47;;;;;;;6.22;3.47;;;17.60;99.90;;;;;;5066484;28;20060;-71
2021/07/28 02:08:16;;;;;;;9.63;3.58;;;17.60;99.90;;;;;;5068020;28;20025;-69
2021/07/28 02:10:48;;;;;;;8.38;3.53;;;17.60;99.90;;;;;;5067807;28;20032;-68
2021/07/28 02:13:18;;;;;;;6.38;3.70;;;17.60;99.90;;;;;;5067876;28;20032;-70
2021/07/28 02:15:44;;;;;;;5.55;3.40;;;17.50;99.90;;;;;;5067643;28;20037;-69
2021/07/28 02:18:11;;;;;;;6.55;3.65;;;17.50;99.90;;;;;;5067936;28;20112;-72
2021/07/28 02:20:37;;;;;;;10.20;3.95;;;17.50;99.90;;;;;;5083690;28;20469;-69
2021/07/28 02:23:03;;;;;;;7.70;3.90;;;17.50;99.90;;;;;;5067655;28;20037;-70
2021/07/28 02:25:29;;;;;;;9.75;3.30;;;17.40;99.90;;;;;;5067755;28;20040;-69
2021/07/28 02:27:55;;;;;;;6.80;3.58;;;17.40;99.90;;;;;;5067444;28;20037;-71
2021/07/28 02:30:21;;;;;;;7.68;4.30;;;17.30;99.90;;;;;;5067223;28;20039;-73
2021/07/28 02:32:47;;;;;;;9.73;4.10;;;17.30;99.90;;;;;;5067333;28;20040;-66
2021/07/28 02:35:14;;;;;;;8.75;3.95;;;17.30;99.90;;;;;;5065986;28;20477;-67
2021/07/28 02:37:41;;;;;;;8.07;3.70;;;17.30;99.90;;;;;;5067391;28;20025;-69
2021/07/28 02:40:18;;;;;;;5.68;3.70;;;17.20;99.90;;;;;;5067408;28;20084;-68
2021/07/28 02:42:45;;;;;;;8.07;4.50;;;17.20;99.90;;;;;;5065864;28;20033;-68
2021/07/28 02:45:10;;;;;;;6.53;3.58;;;17.00;99.90;;;;;;5067219;28;20017;-68
2021/07/28 02:47:36;;;;;;;9.10;4.85;;;17.10;99.90;;;;;;5067084;28;20097;-69
2021/07/28 02:50:03;;;;;;;9.52;4.18;;;17.10;99.90;;;;;;5067360;28;20017;-69
2021/07/28 02:52:29;;;;;;;7.18;3.83;;;17.10;99.90;;;;;;5066678;28;20037;-68
2021/07/28 02:54:54;;;;;;;8.00;3.80;;;17.00;99.90;;;;;;5066912;28;20535;-68
2021/07/28 02:57:21;;;;;;;8.32;4.60;;;17.00;99.90;;;;;;5066917;28;20461;-69
2021/07/28 02:59:46;;;;;;;8.57;4.35;;;17.10;99.90;;;;;;5066883;28;20496;-68
2021/07/28 03:02:12;;;;;;;7.40;4.13;;;17.00;99.90;;;;;;5066715;28;20045;-71
2021/07/28 03:04:38;;;;;;;7.82;3.88;;;17.00;99.90;;;;;;5066654;28;20033;-69
2021/07/28 03:07:03;;;;;;;10.50;4.53;;;17.00;99.90;;;;;;5065622;28;20107;-71
2021/07/28 03:09:29;;;;;;;8.57;4.55;;;16.90;99.90;;;;;;5066752;28;20029;-69
2021/07/28 03:11:54;;;;;;;7.15;4.68;;;16.90;99.90;;;;;;5066599;28;20068;-69
2021/07/28 03:14:20;;;;;;;9.75;5.00;;;16.90;99.90;;;;;;5066290;28;20052;-70
2021/07/28 03:16:46;;;;;;;7.20;4.03;;;16.90;99.90;;;;;;5066407;28;20104;-70
2021/07/28 03:19:11;;;;;;;9.60;4.63;;;16.90;99.90;;;;;;5066629;28;20057;-70
2021/07/28 03:21:37;;;;;;;8.63;4.75;;;16.90;99.90;;;;;;5066365;28;20036;-69
2021/07/28 03:24:03;;;;;;;9.30;5.47;;;16.80;99.90;;;;;;5066903;28;20033;-70
2021/07/28 03:26:30;;;;;;;11.77;5.35;;;16.80;99.90;;;;;;5066329;28;20029;-69
2021/07/28 03:28:56;;;;;;;15.02;5.57;;;16.80;99.90;;;;;;5066404;28;20083;-69
2021/07/28 03:31:22;;;;;;;9.35;5.25;;;16.70;99.90;;;;;;5066189;28;20032;-68
2021/07/28 03:33:47;;;;;;;8.27;4.70;;;16.70;99.90;;;;;;5066186;28;20435;-69
2021/07/28 03:36:13;;;;;;;11.02;5.40;;;16.70;99.90;;;;;;5066250;28;20100;-69
2021/07/28 03:38:39;;;;;;;12.18;5.10;;;16.70;99.90;;;;;;5066168;28;20052;-69
2021/07/28 03:41:05;;;;;;;15.55;6.15;;;16.70;99.90;;;;;;5066210;28;20029;-72
2021/07/28 03:43:30;;;;;;;11.23;4.88;;;16.70;99.90;;;;;;5065890;28;20072;-69
2021/07/28 03:45:56;;;;;;;9.90;5.28;;;16.70;99.90;;;;;;5064525;28;20113;-70
2021/07/28 03:48:21;;;;;;;11.25;5.50;;;16.70;99.90;;;;;;5064688;28;20094;-71
2021/07/28 03:50:47;;;;;;;12.52;5.78;;;16.70;99.90;;;;;;5064524;28;20370;-70
2021/07/28 03:53:13;;;;;;;20.42;5.90;;;16.70;99.90;;;;;;5064582;28;20033;-70
2021/07/28 03:55:38;;;;;;;11.95;6.18;;;16.60;99.90;;;;;;5065871;28;20029;-69
2021/07/28 03:58:04;;;;;;;14.60;5.82;;;16.70;99.90;;;;;;5065890;28;20093;-68
2021/07/28 04:00:29;;;;;;;18.25;6.25;;;16.70;99.90;;;;;;5064523;28;20036;-69
2021/07/28 04:02:55;;;;;;;10.73;5.15;;;16.60;99.90;;;;;;5064291;28;20112;-69
2021/07/28 04:05:21;;;;;;;12.55;6.35;;;16.70;99.90;;;;;;5064811;28;20109;-69
2021/07/28 04:07:55;;;;;;;11.45;5.75;;;16.70;99.90;;;;;;5065645;28;20057;-69
2021/07/28 04:10:20;;;;;;;15.27;6.35;;;16.70;99.90;;;;;;5065506;28;20052;-68
2021/07/28 04:12:46;;;;;;;18.67;6.93;;;16.70;99.90;;;;;;5065381;28;20041;-68
2021/07/28 04:15:12;;;;;;;12.13;6.50;;;16.70;99.90;;;;;;5065006;28;20052;-69
2021/07/28 04:17:37;;;;;;;13.20;6.70;;;16.70;99.90;;;;;;5065436;28;20032;-73
2021/07/28 04:20:03;;;;;;;17.17;7.28;;;16.70;99.90;;;;;;5065612;28;20099;-69
2021/07/28 04:22:29;;;;;;;12.73;6.65;;;16.80;99.90;;;;;;5065190;28;20104;-70
2021/07/28 04:24:55;;;;;;;13.32;6.88;;;16.80;99.90;;;;;;5065350;28;20047;-69
2021/07/28 04:27:20;;;;;;;13.45;6.47;;;16.80;99.90;;;;;;5065486;28;20025;-70
2021/07/28 04:29:46;;;;;;;11.85;6.03;;;16.80;99.90;;;;;;5065396;28;20032;-69
2021/07/28 04:32:12;;;;;;;11.73;6.43;;;16.90;99.90;;;;;;5065458;28;20032;-70
2021/07/28 04:34:37;;;;;;;10.77;5.32;;;16.80;99.90;;;;;;5065101;28;20025;-71
2021/07/28 04:37:03;;;;;;;11.73;6.30;;;16.90;99.90;;;;;;5065294;28;20048;-69
2021/07/28 04:39:33;;;;;;;18.38;7.63;;;17.00;99.90;;;;;;5064973;28;20111;-72
2021/07/28 04:41:59;;;;;;;15.10;7.07;;;17.00;99.90;;;;;;5064845;28;20045;-70
2021/07/28 04:44:25;;;;;;;16.90;7.80;;;17.00;99.90;;;;;;5064976;28;20054;-70
2021/07/28 04:46:50;;;;;;;19.67;7.75;;;17.00;99.90;;;;;;5064798;28;20025;-69
2021/07/28 04:49:16;;;;;;;16.83;7.38;;;17.10;99.90;;;;;;5064923;28;20032;-69
2021/07/28 04:51:42;;;;;;;26.98;8.35;;;17.10;99.90;;;;;;5064777;28;20496;-72
2021/07/28 04:54:07;;;;;;;13.73;6.47;;;17.10;99.90;;;;;;5063629;28;20025;-72
2021/07/28 04:56:33;;;;;;;13.38;6.70;;;17.20;99.90;;;;;;5064917;28;20487;-69
2021/07/28 04:58:59;;;;;;;28.13;7.07;;;17.10;99.90;;;;;;5064457;28;20047;-69
2021/07/28 05:01:24;;;;;;;16.65;7.35;;;17.20;99.90;;;;;;5064545;28;20029;-69
2021/07/28 05:03:50;;;;;;;12.73;6.80;;;17.20;99.90;;;;;;5064598;28;20041;-70
2021/07/28 05:06:16;;;;;;;15.23;7.57;;;17.30;99.90;;;;;;5064654;28;20071;-70
2021/07/28 05:08:42;;;;;;;14.40;6.55;;;17.30;99.90;;;;;;5064974;28;20025;-69
2021/07/28 05:11:08;;;;;;;16.83;6.90;;;17.40;99.90;;;;;;5064643;28;20036;-70
2021/07/28 05:13:33;;;;;;;12.88;6.68;;;17.40;99.90;;;;;;5064606;28;20033;-69
2021/07/28 05:15:59;;;;;;;16.20;7.15;;;17.40;99.90;;;;;;5065824;28;20052;-72
2021/07/28 05:18:24;;;;;;;15.63;7.90;;;17.40;99.90;;;;;;5068781;28;20037;-70
2021/07/28 05:20:50;;;;;;;19.13;7.45;;;17.50;99.90;;;;;;5068769;28;20107;-71
2021/07/28 05:23:15;;;;;;;16.92;7.25;;;17.50;99.90;;;;;;5068611;28;20405;-71
2021/07/28 05:25:41;;;;;;;14.45;7.18;;;17.50;99.90;;;;;;5054816;28;20080;-71
2021/07/28 05:28:06;;;;;;;14.40;6.63;;;17.60;99.90;;;;;;5049557;28;20064;-70
2021/07/28 05:30:33;;;;;;;14.95;6.68;;;17.60;99.90;;;;;;5068609;28;20029;-71
2021/07/28 05:32:59;;;;;;;14.70;6.93;;;17.60;99.90;;;;;;5065131;28;20043;-71
2021/07/28 05:35:25;;;;;;;20.80;7.00;;;17.60;99.90;;;;;;5064659;28;20029;-71
2021/07/28 05:37:57;;;;;;;15.05;7.00;;;17.70;99.90;;;;;;5052266;28;20477;-69
2021/07/28 05:40:23;;;;;;;12.50;6.68;;;17.70;99.90;;;;;;5068388;28;20028;-71
2021/07/28 05:42:48;;;;;;;13.55;6.55;;;17.70;99.90;;;;;;5068299;28;20045;-69
2021/07/28 05:45:14;;;;;;;24.13;7.40;;;17.80;99.90;;;;;;5058129;28;20025;-73
2021/07/28 05:47:40;;;;;;;13.93;6.63;;;17.80;99.90;;;;;;5048091;28;20048;-71
2021/07/28 05:50:06;;;;;;;12.90;6.93;;;17.80;99.90;;;;;;5048318;28;20055;-70
2021/07/28 05:52:31;;;;;;;20.30;6.10;;;17.90;99.90;;;;;;5067541;28;20024;-71
2021/07/28 05:54:57;;;;;;;15.70;6.28;;;17.90;99.90;;;;;;5067972;28;20060;-69
2021/07/28 05:57:22;;;;;;;15.10;6.88;;;17.90;99.90;;;;;;5061750;28;20037;-70
2021/07/28 05:59:48;;;;;;;11.90;6.60;;;18.00;99.90;;;;;;5053784;28;20044;-70
2021/07/28 06:02:14;;;;;;;13.68;6.38;;;18.00;99.90;;;;;;5062492;28;20191;-71
2021/07/28 06:04:39;;;;;;;13.40;5.95;;;18.10;99.90;;;;;;5047229;28;20033;-72
2021/07/28 06:07:07;;;;;;;11.68;5.88;;;18.10;99.90;;;;;;5046119;28;20067;-70
2021/07/28 06:09:33;;;;;;;15.30;5.65;;;18.10;99.90;;;;;;5046753;28;20029;-71
2021/07/28 06:11:58;;;;;;;14.20;5.90;;;18.10;99.90;;;;;;5047925;28;20072;-72
2021/07/28 06:14:24;;;;;;;14.63;5.88;;;18.20;99.90;;;;;;5047574;28;20591;-70
2021/07/28 06:16:49;;;;;;;10.43;5.55;;;18.20;99.90;;;;;;5047628;28;20026;-72
2021/07/28 06:19:15;;;;;;;8.43;4.72;;;18.20;99.90;;;;;;5047740;28;20072;-70
2021/07/28 06:21:40;;;;;;;16.75;6.38;;;18.20;99.90;;;;;;5047776;28;20383;-70
2021/07/28 06:24:06;;;;;;;10.63;5.28;;;18.30;99.90;;;;;;5047891;28;20029;-71
2021/07/28 06:26:32;;;;;;;11.50;6.18;;;18.30;99.90;;;;;;5047789;28;20061;-69
2021/07/28 06:28:57;;;;;;;12.10;5.53;;;18.40;99.90;;;;;;5046820;28;20045;-71
2021/07/28 06:31:23;;;;;;;20.75;6.18;;;18.50;99.90;;;;;;5047591;28;20025;-71
2021/07/28 06:33:48;;;;;;;18.50;8.07;;;18.60;99.90;;;;;;5047391;28;20057;-70
2021/07/28 06:36:14;;;;;;;16.67;6.32;;;18.60;99.90;;;;;;5047830;28;20026;-70
2021/07/28 06:38:40;;;;;;;15.27;6.93;;;18.60;99.90;;;;;;5047811;28;20112;-76
2021/07/28 06:41:06;;;;;;;12.88;5.65;;;18.70;99.90;;;;;;5047449;28;20025;-71
2021/07/28 06:43:31;;;;;;;16.17;6.60;;;18.70;99.90;;;;;;5047366;28;20056;-69
2021/07/28 06:45:58;;;;;;;17.02;6.82;;;18.70;99.90;;;;;;5047240;28;20032;-73
2021/07/28 06:48:24;;;;;;;12.23;6.40;;;18.80;99.90;;;;;;5047080;28;20025;-73
2021/07/28 06:50:50;;;;;;;13.65;6.68;;;18.80;99.90;;;;;;5047179;28;20382;-72
2021/07/28 06:53:15;;;;;;;20.48;6.88;;;18.80;99.90;;;;;;5045663;28;20028;-70
2021/07/28 06:55:41;;;;;;;18.92;6.72;;;18.80;99.90;;;;;;5047240;28;20113;-70
2021/07/28 06:58:16;;;;;;;14.05;6.93;;;18.90;99.90;;;;;;5047800;28;20032;-70
2021/07/28 07:00:41;;;;;;;17.65;7.07;;;18.90;99.90;;;;;;5057819;28;20021;-67
2021/07/28 07:03:07;;;;;;;11.55;4.90;;;18.90;99.90;;;;;;5067138;28;20048;-70
2021/07/28 07:05:32;;;;;;;10.77;6.07;;;18.90;99.90;;;;;;5066881;28;20033;-69
2021/07/28 07:07:58;;;;;;;11.30;5.78;;;18.90;99.90;;;;;;5066680;28;20017;-71
2021/07/28 07:10:23;;;;;;;14.63;6.55;;;18.90;99.90;;;;;;5066804;28;20076;-69
2021/07/28 07:12:49;;;;;;;10.63;5.75;;;19.00;99.90;;;;;;5065397;28;20017;-71
2021/07/28 07:15:15;;;;;;;12.63;6.13;;;18.90;99.90;;;;;;5066220;28;20053;-71
2021/07/28 07:17:41;;;;;;;13.68;6.15;;;18.90;99.90;;;;;;5066675;28;20079;-74
2021/07/28 07:20:08;;;;;;;16.35;5.55;;;19.00;99.90;;;;;;5065487;28;20035;-68
2021/07/28 07:22:34;;;;;;;10.80;4.75;;;19.00;99.90;;;;;;5066699;28;20132;-70
2021/07/28 07:24:59;;;;;;;9.70;5.63;;;19.00;99.90;;;;;;5066370;28;20029;-69
2021/07/28 07:27:25;;;;;;;12.55;5.82;;;19.10;99.90;;;;;;5066141;28;20491;-69
2021/07/28 07:29:50;;;;;;;13.48;4.93;;;19.10;99.90;;;;;;5064933;28;20032;-69
2021/07/28 07:32:23;;;;;;;13.63;5.20;;;19.20;99.90;;;;;;5066323;28;20029;-70
2021/07/28 07:34:50;;;;;;;11.10;5.18;;;19.20;99.90;;;;;;5066121;28;20025;-69
2021/07/28 07:37:16;;;;;;;8.95;4.78;;;19.20;99.90;;;;;;5066248;28;20027;-67
2021/07/28 07:39:41;;;;;;;11.93;5.32;;;19.20;99.90;;;;;;5065269;28;20055;-71
2021/07/28 07:42:07;;;;;;;10.80;4.97;;;19.30;99.90;;;;;;5066334;28;20041;-69
2021/07/28 07:44:33;;;;;;;8.55;4.32;;;19.30;99.90;;;;;;5066259;28;20040;-69
2021/07/28 07:46:58;;;;;;;5.80;3.45;;;19.40;99.90;;;;;;5065861;28;20099;-70
2021/07/28 07:49:25;;;;;;;10.27;4.00;;;19.50;99.90;;;;;;5066056;28;20163;-68
2021/07/28 07:51:51;;;;;;;7.15;3.55;;;19.60;99.90;;;;;;5065963;28;20088;-68
2021/07/28 07:54:16;;;;;;;8.82;3.60;;;19.60;99.90;;;;;;5065813;28;20021;-71
2021/07/28 07:56:42;;;;;;;6.82;3.90;;;19.70;99.90;;;;;;5066165;28;20037;-69
2021/07/28 07:59:08;;;;;;;8.38;3.80;;;19.60;99.90;;;;;;5065929;28;20025;-69
2021/07/28 08:01:33;;;;;;;12.73;3.85;;;19.70;99.90;;;;;;5081408;28;20029;-70
2021/07/28 08:03:59;;;;;;;7.97;3.67;;;19.80;99.90;;;;;;5065648;28;20041;-70
2021/07/28 08:06:24;;;;;;;8.68;4.20;;;19.80;99.90;;;;;;5065344;28;20029;-68
2021/07/28 08:08:50;;;;;;;9.93;3.85;;;19.80;99.90;;;;;;5065696;28;20033;-69
2021/07/28 08:11:16;;;;;;;6.75;3.58;;;19.90;99.90;;;;;;5065626;28;20036;-70
2021/07/28 08:13:42;;;;;;;9.88;3.85;;;20.00;99.90;;;;;;5065527;28;20025;-72
2021/07/28 08:16:19;;;;;;;6.28;3.53;;;20.10;99.90;;;;;;5065474;28;20049;-72
2021/07/28 08:18:45;;;;;;;7.13;3.30;;;20.20;99.90;;;;;;5065326;28;20047;-69
2021/07/28 08:21:13;;;;;;;5.88;3.42;;;20.30;99.90;;;;;;5058392;28;20029;-70
2021/07/28 08:23:40;;;;;;;7.10;3.63;;;20.30;99.90;;;;;;5057671;28;20482;-72
2021/07/28 08:26:06;;;;;;;6.63;3.25;;;20.40;99.90;;;;;;5050578;28;20048;-72
2021/07/28 08:28:31;;;;;;;8.10;3.20;;;20.50;99.90;;;;;;5045548;28;20030;-71
2021/07/28 08:30:57;;;;;;;4.95;3.17;;;20.60;99.90;;;;;;5053765;28;20075;-74
2021/07/28 08:33:25;;;;;;;7.13;3.85;;;20.70;99.90;;;;;;5047091;28;20069;-73
2021/07/28 08:35:53;;;;;;;6.57;3.42;;;20.80;99.90;;;;;;5064799;28;20092;-71
2021/07/28 08:38:21;;;;;;;5.97;3.03;;;20.80;99.90;;;;;;5065044;28;20029;-72
2021/07/28 08:41:00;;;;;;;10.23;3.03;;;20.70;99.90;;;;;;5068014;28;20018;-73
2021/07/28 08:43:35;;;;;;;3.75;2.47;;;20.70;99.90;;;;;;5045167;28;20418;-71
2021/07/28 08:46:02;;;;;;;;;;;20.60;99.90;;;;;;5045390;28;20029;-69
2021/07/28 08:48:29;;;;;;;6.78;2.58;;;20.70;99.90;;;;;;5052449;28;19909;-70
2021/07/28 08:50:56;;;;;;;9.20;3.28;;;20.80;99.90;;;;;;5056979;28;20021;-68
2021/07/28 08:53:25;;;;;;;5.28;3.17;;;20.80;99.90;;;;;;5052436;28;20026;-69
2021/07/28 08:55:52;;;;;;;7.57;3.42;;;21.00;99.90;;;;;;5044832;28;20037;-68
2021/07/28 08:58:20;;;;;;;6.10;2.90;;;21.10;99.90;;;;;;5044927;28;20079;-70
2021/07/28 09:00:47;;;;;;;12.05;4.20;;;21.20;99.90;;;;;;5052617;28;20029;-70
2021/07/28 09:03:13;;;;;;;4.75;2.97;;;21.30;99.90;;;;;;5056668;28;20032;-69
2021/07/28 09:05:40;;;;;;;9.23;3.33;;;21.30;99.90;;;;;;5064799;28;20025;-72
2021/07/28 09:08:22;;;;;;;7.82;3.58;;;21.40;99.90;;;;;;5045698;28;20045;-71
2021/07/28 09:10:50;;;;;;;5.82;3.08;;;21.40;99.90;;;;;;5044763;28;20018;-70
2021/07/28 09:13:24;;;;;;;10.45;3.03;;;21.30;99.90;;;;;;5044646;28;20040;-69
2021/07/28 09:15:50;;;;;;;5.72;3.28;;;21.30;99.90;;;;;;5044698;28;20045;-67
2021/07/28 09:18:42;;;;;;;5.90;3.17;;;21.30;99.90;;;;;;5044722;28;20033;-69
2021/07/28 09:21:20;;;;;;;7.20;3.38;;;21.20;99.90;;;;;;5044694;28;20029;-68
2021/07/28 09:23:48;;;;;;;3.63;2.50;;;21.10;99.90;;;;;;5044439;28;20042;-71
2021/07/28 09:26:32;;;;;;;10.60;3.53;;;21.10;99.90;;;;;;5043175;28;20033;-72
2021/07/28 09:29:11;;;;;;;7.53;3.38;;;21.20;99.90;;;;;;5044662;28;20030;-73
2021/07/28 09:31:43;;;;;;;6.97;3.13;;;21.30;99.90;;;;;;5044587;28;20036;-72
2021/07/28 09:34:18;;;;;;;5.38;3.10;;;21.40;99.90;;;;;;5044530;28;20052;-70
2021/07/28 09:36:44;;;;;;;12.90;3.50;;;21.40;99.90;;;;;;5044393;28;20108;-70
2021/07/28 09:39:35;;;;;;;4.35;2.58;;;21.40;99.90;;;;;;5044654;28;20033;-70
2021/07/28 09:42:18;;;;;;;4.53;3.03;;;21.40;99.90;;;;;;5044574;28;20041;-67
2021/07/28 09:44:48;;;;;;;3.95;2.42;;;21.50;99.90;;;;;;5044623;28;20029;-70
2021/07/28 09:47:21;;;;;;;5.95;2.58;;;21.50;99.90;;;;;;5043026;28;20100;-67
2021/07/28 09:49:49;;;;;;;17.95;2.65;;;21.60;99.90;;;;;;5044358;28;20079;-69
2021/07/28 09:52:25;;;;;;;5.97;3.10;;;21.60;99.90;;;;;;5044305;28;20036;-68
2021/07/28 09:54:53;;;;;;;5.28;3.17;;;21.70;99.90;;;;;;5044286;28;20024;-71
2021/07/28 09:57:24;;;;;;;4.00;2.90;;;21.90;99.90;;;;;;5043864;28;20371;-72
2021/07/28 09:59:52;;;;;;;8.23;3.53;;;22.10;99.90;;;;;;5044386;28;20022;-69
2021/07/28 10:02:21;;;;;;;5.78;3.00;;;22.20;99.90;;;;;;5044125;28;20040;-70
2021/07/28 10:04:49;;;;;;;5.95;3.30;;;22.30;99.90;;;;;;5047761;28;20485;-71
2021/07/28 10:07:20;;;;;;;8.15;3.55;;;22.40;99.90;;;;;;5046737;28;20022;-67
2021/07/28 10:10:02;;;;;;;5.57;2.95;;;22.50;99.90;;;;;;5047795;28;20029;-72
2021/07/28 10:12:28;;;;;;;7.22;4.03;;;22.50;99.90;;;;;;5055037;28;20036;-73
2021/07/28 10:14:56;;;;;;;6.22;3.45;;;22.60;99.90;;;;;;5059378;28;20056;-68
2021/07/28 10:17:22;;;;;;;10.95;4.70;;;22.70;99.90;;;;;;5067590;28;20159;-69
2021/07/28 10:19:51;;;;;;;8.27;3.72;;;22.60;99.90;;;;;;5067591;28;20021;-72
2021/07/28 10:22:17;;;;;;;5.90;3.58;;;22.50;99.90;;;;;;5056748;28;20038;-71
2021/07/28 10:24:45;;;;;;;6.28;3.55;;;22.40;99.90;;;;;;5047591;28;20029;-71
2021/07/28 10:27:11;;;;;;;6.55;3.58;;;22.60;99.90;;;;;;5047687;28;20021;-70
2021/07/28 10:29:36;;;;;;;6.93;3.67;;;22.70;99.90;;;;;;5047614;28;20033;-74
2021/07/28 10:32:03;;;;;;;6.15;2.60;;;22.70;99.90;;;;;;5047844;28;20021;-71
2021/07/28 10:34:29;;;;;;;3.60;2.78;;;22.50;99.90;;;;;;5047515;28;20112;-69
2021/07/28 10:37:04;;;;;;;9.52;3.45;;;22.40;99.90;;;;;;5053223;28;20033;-69
2021/07/28 10:39:46;;;;;;;5.20;3.35;;;22.30;99.90;;;;;;5067413;28;20025;-66
2021/07/28 10:42:19;;;;;;;10.20;3.03;;;22.30;99.90;;;;;;5067378;28;20101;-73
2021/07/28 10:45:09;;;;;;;5.03;3.33;;;22.50;99.90;;;;;;5062480;28;20034;-70
2021/07/28 10:47:37;;;;;;;7.00;2.95;;;22.60;99.90;;;;;;5047369;28;20052;-68
2021/07/28 10:50:26;;;;;;;4.10;2.83;;;22.90;99.90;;;;;;5053148;28;20121;-70
2021/07/28 10:53:37;;;;;;;5.95;2.85;;;23.10;99.90;;;;;;5037176;28;20053;-72
2021/07/28 10:56:10;;;;;;;4.18;2.97;;;23.10;99.90;;;;;;5046642;28;20037;-70
2021/07/28 10:58:36;;;;;;;5.97;2.25;;;23.10;99.90;;;;;;5053178;28;20040;-69
2021/07/28 11:01:02;;;;;;;6.20;2.75;;;23.00;99.90;;;;;;5050715;28;20478;-68
2021/07/28 11:03:33;;;;;;;6.38;3.03;;;23.00;99.90;;;;;;5047332;28;20988;-70
2021/07/28 11:06:18;;;;;;;5.40;2.67;;;22.90;99.90;;;;;;5047204;28;20049;-70
2021/07/28 11:08:44;;;;;;;6.07;3.22;;;22.90;99.90;;;;;;5063837;28;20021;-69
2021/07/28 11:11:19;;;;;;;8.60;3.55;;;22.80;99.90;;;;;;5051928;28;20030;-71
2021/07/28 11:13:46;;;;;;;8.38;3.97;;;22.70;99.90;;;;;;5065630;28;20048;-71
2021/07/28 11:16:11;;;;;;;5.30;2.80;;;22.70;99.90;;;;;;5063034;28;20049;-72
2021/07/28 11:18:46;;;;;;;5.68;3.35;;;22.70;99.90;;;;;;5059105;28;20061;-69
2021/07/28 11:21:13;;;;;;;;;;;22.70;99.90;;;;;;5065946;28;20033;-67
2021/07/28 11:23:41;;;;;;;5.45;3.63;;;22.70;99.90;;;;;;5062841;28;19913;-71
2021/07/28 11:26:26;;;;;;;8.55;3.88;;;22.60;99.90;;;;;;5045606;28;20022;-71
2021/07/28 11:29:00;;;;;;;18.20;3.22;;;22.60;99.90;;;;;;5046585;28;20474;-69
2021/07/28 11:31:31;;;;;;;9.43;3.35;;;22.70;99.90;;;;;;5046526;28;20025;-72
2021/07/28 11:34:09;;;;;;;5.47;3.28;;;22.60;99.90;;;;;;5046222;28;20041;-67
2021/07/28 11:36:36;;;;;;;5.43;3.03;;;22.50;99.90;;;;;;5046506;28;20029;-70
2021/07/28 11:39:34;;;;;;;7.28;3.63;;;22.40;99.90;;;;;;5046504;28;20033;-67
2021/07/28 11:42:02;;;;;;;6.00;3.22;;;22.30;99.90;;;;;;5041879;28;20080;-70
2021/07/28 11:44:27;;;;;;;6.78;3.50;;;22.30;99.90;;;;;;5046095;28;20048;-70
2021/07/28 11:46:54;;;;;;;5.85;3.40;;;22.20;99.90;;;;;;5044732;28;20029;-69
2021/07/28 11:49:24;;;;;;;9.30;4.15;;;22.10;99.90;;;;;;5046067;28;20025;-73
2021/07/28 11:51:49;;;;;;;8.23;3.83;;;22.10;99.90;;;;;;5064902;28;20427;-72
2021/07/28 11:54:17;;;;;;;8.20;4.05;;;22.00;99.90;;;;;;5065845;28;20059;-72
2021/07/28 11:56:53;;;;;;;5.35;3.25;;;22.00;99.90;;;;;;5065905;28;20104;-70
2021/07/28 11:59:28;;;;;;;5.18;2.97;;;21.90;99.90;;;;;;5065948;28;20032;-69
2021/07/28 12:01:55;;;;;;;7.47;4.13;;;21.90;99.90;;;;;;5065588;28;20021;-69
2021/07/28 12:04:23;;;;;;;7.60;3.95;;;21.80;99.90;;;;;;5065810;28;20021;-70
2021/07/28 12:06:50;;;;;;;7.35;3.70;;;21.80;99.90;;;;;;5064262;28;20492;-70
2021/07/28 12:09:20;;;;;;;6.35;3.85;;;21.80;99.90;;;;;;5065682;28;20167;-70
2021/07/28 12:11:57;;;;;;;8.40;4.45;;;21.70;99.90;;;;;;5058253;28;20030;-68
2021/07/28 12:14:34;;;;;;;8.85;4.15;;;21.70;99.90;;;;;;5045611;28;20042;-70
2021/07/28 12:17:05;;;;;;;11.45;4.93;;;21.50;99.90;;;;;;5045451;28;20017;-68
2021/07/28 12:19:39;;;;;;;7.22;4.68;;;21.30;99.90;;;;;;5045925;28;20025;-66
2021/07/28 12:22:10;;;;;;;6.55;3.67;;;21.30;99.90;;;;;;5045722;28;20046;-70
2021/07/28 12:24:37;;;;;;;6.20;3.40;;;21.30;99.90;;;;;;5045824;28;20037;-70
2021/07/28 12:27:25;;;;;;;5.53;3.35;;;21.40;99.90;;;;;;5043887;28;20405;-68
2021/07/28 12:30:00;;;;;;;5.60;2.70;;;21.60;99.90;;;;;;5045414;28;20052;-71
2021/07/28 12:32:39;;;;;;;5.22;2.88;;;21.90;99.90;;;;;;5045386;28;20052;-69
2021/07/28 12:35:22;;;;;;;4.47;2.50;;;22.30;99.90;;;;;;5044049;28;20446;-69
2021/07/28 12:38:07;;;;;;;4.65;2.83;;;22.20;99.90;;;;;;5045135;28;20034;-71
2021/07/28 12:40:34;;;;;;;3.92;2.42;;;22.00;99.90;;;;;;5045206;28;20358;-70
2021/07/28 12:42:59;;;;;;;5.10;3.00;;;21.90;99.90;;;;;;5045056;28;20124;-69
2021/07/28 12:45:25;;;;;;;4.57;2.42;;;22.10;99.90;;;;;;5045048;28;20044;-69
2021/07/28 12:47:51;;;;;;;8.30;3.13;;;22.50;99.90;;;;;;5045050;28;20025;-72
2021/07/28 12:50:17;;;;;;;3.25;2.00;;;23.00;99.90;;;;;;5045034;28;20036;-70